sensor_id;sensor_type;location;lat;lon;timestamp;temperature;humidity
20319;DHT22;10317;47.254;11.314;2023-12-29T00:01:33;2.30;99.90
20319;DHT22;10317;47.254;11.314;2023-12-29T00:03:59;2.30;99.90
20319;DHT22;10317;47.254;11.314;2023-12-29T00:06:25;2.20;99.90
20319;DHT22;10317;47.254;11.314;2023-12-29T00:08:50;2.20;99.90
20319;DHT22;10317;47.254;11.314;2023-12-29T00:11:19;2.20;99.90
20319;DHT22;10317;47.254;11.314;2023-12-29T00:13:45;2.20;99.90
20319;DHT22;10317;47.254;11.314;2023-12-29T00:16:11;2.20;99.90
20319;DHT22;10317;47.254;11.314;2023-12-29T00:18:37;2.20;99.90
20319;DHT22;10317;47.254;11.314;2023-12-29T00:21:03;2.20;99.90
20319;DHT22;10317;47.254;11.314;2023-12-29T00:23:29;2.10;99.90
20319;DHT22;10317;47.254;11.314;2023-12-29T00:25:55;2.10;99.90
20319;DHT22;10317;47.254;11.314;2023-12-29T00:28:20;2.10;99.90
20319;DHT22;10317;47.254;11.314;2023-12-29T00:30:46;2.00;99.90
20319;DHT22;10317;47.254;11.314;2023-12-29T00:33:11;1.90;99.90
20319;DHT22;10317;47.254;11.314;2023-12-29T00:35:37;1.90;99.90
20319;DHT22;10317;47.254;11.314;2023-12-29T00:38:04;1.80;99.90
20319;DHT22;10317;47.254;11.314;2023-12-29T00:40:31;1.70;99.90
20319;DHT22;10317;47.254;11.314;2023-12-29T00:42:57;1.70;99.90
20319;DHT22;10317;47.254;11.314;2023-12-29T00:45:22;1.70;99.90
20319;DHT22;10317;47.254;11.314;2023-12-29T00:47:48;1.60;99.90
20319;DHT22;10317;47.254;11.314;2023-12-29T00:50:16;1.60;99.90
20319;DHT22;10317;47.254;11.314;2023-12-29T00:52:42;1.50;99.90
20319;DHT22;10317;47.254;11.314;2023-12-29T00:55:07;1.60;99.90
20319;DHT22;10317;47.254;11.314;2023-12-29T00:57:33;1.60;99.90
20319;DHT22;10317;47.254;11.314;2023-12-29T01:00:00;1.60;99.90
20319;DHT22;10317;47.254;11.314;2023-12-29T01:02:26;1.60;99.90
20319;DHT22;10317;47.254;11.314;2023-12-29T01:04:52;1.70;99.90
20319;DHT22;10317;47.254;11.314;2023-12-29T01:07:17;1.60;99.90
20319;DHT22;10317;47.254;11.314;2023-12-29T01:09:43;1.60;99.90
20319;DHT22;10317;47.254;11.314;2023-12-29T01:12:09;1.60;99.90
20319;DHT22;10317;47.254;11.314;2023-12-29T01:14:35;1.50;99.90
20319;DHT22;10317;47.254;11.314;2023-12-29T01:17:01;1.40;99.90
20319;DHT22;10317;47.254;11.314;2023-12-29T01:19:26;1.30;99.90
20319;DHT22;10317;47.254;11.314;2023-12-29T01:21:52;1.30;99.90
20319;DHT22;10317;47.254;11.314;2023-12-29T01:24:18;1.30;99.90
20319;DHT22;10317;47.254;11.314;2023-12-29T01:26:43;1.30;99.90
20319;DHT22;10317;47.254;11.314;2023-12-29T01:29:09;1.20;99.90
20319;DHT22;10317;47.254;11.314;2023-12-29T01:31:34;1.20;99.90
20319;DHT22;10317;47.254;11.314;2023-12-29T01:34:00;1.10;99.90
20319;DHT22;10317;47.254;11.314;2023-12-29T01:36:26;1.10;99.90
20319;DHT22;10317;47.254;11.314;2023-12-29T01:38:52;1.10;99.90
20319;DHT22;10317;47.254;11.314;2023-12-29T01:41:21;1.20;99.90
20319;DHT22;10317;47.254;11.314;2023-12-29T01:46:33;1.20;99.90
20319;DHT22;10317;47.254;11.314;2023-12-29T01:49:00;1.20;99.90
20319;DHT22;10317;47.254;11.314;2023-12-29T01:51:27;1.20;99.90
20319;DHT22;10317;47.254;11.314;2023-12-29T01:53:55;1.20;99.90
20319;DHT22;10317;47.254;11.314;2023-12-29T01:56:22;1.10;99.90
20319;DHT22;10317;47.254;11.314;2023-12-29T01:58:49;1.00;99.90
20319;DHT22;10317;47.254;11.314;2023-12-29T02:01:18;1.00;99.90
20319;DHT22;10317;47.254;11.314;2023-12-29T02:03:44;1.00;99.90
20319;DHT22;10317;47.254;11.314;2023-12-29T02:06:10;1.00;99.90
20319;DHT22;10317;47.254;11.314;2023-12-29T02:08:37;1.00;99.90
20319;DHT22;10317;47.254;11.314;2023-12-29T02:11:04;1.00;99.90
20319;DHT22;10317;47.254;11.314;2023-12-29T02:13:31;1.00;99.90
20319;DHT22;10317;47.254;11.314;2023-12-29T02:16:15;1.00;99.90
20319;DHT22;10317;47.254;11.314;2023-12-29T02:18:44;1.00;99.90
20319;DHT22;10317;47.254;11.314;2023-12-29T02:21:11;0.90;99.90
20319;DHT22;10317;47.254;11.314;2023-12-29T02:23:36;0.90;99.90
20319;DHT22;10317;47.254;11.314;2023-12-29T02:26:08;0.90;99.90
20319;DHT22;10317;47.254;11.314;2023-12-29T02:28:39;0.80;99.90
20319;DHT22;10317;47.254;11.314;2023-12-29T02:31:20;0.70;99.90
20319;DHT22;10317;47.254;11.314;2023-12-29T02:33:50;0.70;99.90
20319;DHT22;10317;47.254;11.314;2023-12-29T02:36:18;0.70;99.90
20319;DHT22;10317;47.254;11.314;2023-12-29T02:38:44;0.60;99.90
20319;DHT22;10317;47.254;11.314;2023-12-29T02:41:11;0.60;99.90
20319;DHT22;10317;47.254;11.314;2023-12-29T02:43:38;0.60;99.90
20319;DHT22;10317;47.254;11.314;2023-12-29T02:46:04;0.70;99.90
20319;DHT22;10317;47.254;11.314;2023-12-29T02:48:30;0.70;99.90
20319;DHT22;10317;47.254;11.314;2023-12-29T02:50:56;0.70;99.90
20319;DHT22;10317;47.254;11.314;2023-12-29T02:53:21;0.80;99.90
20319;DHT22;10317;47.254;11.314;2023-12-29T02:55:47;0.80;99.90
20319;DHT22;10317;47.254;11.314;2023-12-29T02:58:12;0.90;99.90
20319;DHT22;10317;47.254;11.314;2023-12-29T03:00:38;0.90;99.90
20319;DHT22;10317;47.254;11.314;2023-12-29T03:03:04;0.90;99.90
20319;DHT22;10317;47.254;11.314;2023-12-29T03:05:30;0.90;99.90
20319;DHT22;10317;47.254;11.314;2023-12-29T03:07:56;0.90;99.90
20319;DHT22;10317;47.254;11.314;2023-12-29T03:10:22;0.90;99.90
20319;DHT22;10317;47.254;11.314;2023-12-29T03:12:49;0.90;99.90
20319;DHT22;10317;47.254;11.314;2023-12-29T03:15:14;0.90;99.90
20319;DHT22;10317;47.254;11.314;2023-12-29T03:17:40;0.80;99.90
20319;DHT22;10317;47.254;11.314;2023-12-29T03:20:06;0.80;99.90
20319;DHT22;10317;47.254;11.314;2023-12-29T03:22:33;0.70;99.90
20319;DHT22;10317;47.254;11.314;2023-12-29T03:24:59;0.70;99.90
20319;DHT22;10317;47.254;11.314;2023-12-29T03:27:24;0.70;99.90
20319;DHT22;10317;47.254;11.314;2023-12-29T03:29:50;0.60;99.90
20319;DHT22;10317;47.254;11.314;2023-12-29T03:32:16;0.50;99.90
20319;DHT22;10317;47.254;11.314;2023-12-29T03:34:42;0.50;99.90
20319;DHT22;10317;47.254;11.314;2023-12-29T03:37:08;0.50;99.90
20319;DHT22;10317;47.254;11.314;2023-12-29T03:39:35;0.50;99.90
20319;DHT22;10317;47.254;11.314;2023-12-29T03:42:01;0.50;99.90
20319;DHT22;10317;47.254;11.314;2023-12-29T03:44:27;0.50;99.90
20319;DHT22;10317;47.254;11.314;2023-12-29T03:46:52;0.50;99.90
20319;DHT22;10317;47.254;11.314;2023-12-29T03:49:20;0.50;99.90
20319;DHT22;10317;47.254;11.314;2023-12-29T03:51:45;0.60;99.90
20319;DHT22;10317;47.254;11.314;2023-12-29T03:54:12;0.60;99.90
20319;DHT22;10317;47.254;11.314;2023-12-29T03:56:37;0.60;99.90
20319;DHT22;10317;47.254;11.314;2023-12-29T03:59:03;0.60;99.90
20319;DHT22;10317;47.254;11.314;2023-12-29T04:01:29;0.60;99.90
20319;DHT22;10317;47.254;11.314;2023-12-29T04:03:54;0.50;99.90
20319;DHT22;10317;47.254;11.314;2023-12-29T04:06:20;0.60;99.90
20319;DHT22;10317;47.254;11.314;2023-12-29T04:08:46;0.60;99.90
20319;DHT22;10317;47.254;11.314;2023-12-29T04:11:12;0.60;99.90
20319;DHT22;10317;47.254;11.314;2023-12-29T04:13:37;0.60;99.90
20319;DHT22;10317;47.254;11.314;2023-12-29T04:16:03;0.60;99.90
20319;DHT22;10317;47.254;11.314;2023-12-29T04:18:29;0.60;99.90
20319;DHT22;10317;47.254;11.314;2023-12-29T04:20:55;0.70;99.90
20319;DHT22;10317;47.254;11.314;2023-12-29T04:23:21;0.70;99.90
20319;DHT22;10317;47.254;11.314;2023-12-29T04:25:46;0.70;99.90
20319;DHT22;10317;47.254;11.314;2023-12-29T04:28:12;0.80;99.90
20319;DHT22;10317;47.254;11.314;2023-12-29T04:30:38;0.80;99.90
20319;DHT22;10317;47.254;11.314;2023-12-29T04:33:04;0.80;99.90
20319;DHT22;10317;47.254;11.314;2023-12-29T04:35:29;0.80;99.90
20319;DHT22;10317;47.254;11.314;2023-12-29T04:37:55;0.70;99.90
20319;DHT22;10317;47.254;11.314;2023-12-29T04:40:21;0.70;99.90
20319;DHT22;10317;47.254;11.314;2023-12-29T04:42:46;0.70;99.90
20319;DHT22;10317;47.254;11.314;2023-12-29T04:45:12;0.70;99.90
20319;DHT22;10317;47.254;11.314;2023-12-29T04:47:38;0.70;99.90
20319;DHT22;10317;47.254;11.314;2023-12-29T04:50:04;0.70;99.90
20319;DHT22;10317;47.254;11.314;2023-12-29T04:52:33;0.80;99.90
20319;DHT22;10317;47.254;11.314;2023-12-29T04:54:59;0.80;99.90
20319;DHT22;10317;47.254;11.314;2023-12-29T04:57:25;0.80;99.90
20319;DHT22;10317;47.254;11.314;2023-12-29T04:59:50;0.80;99.90
20319;DHT22;10317;47.254;11.314;2023-12-29T05:02:16;0.80;99.90
20319;DHT22;10317;47.254;11.314;2023-12-29T05:04:42;0.80;99.90
20319;DHT22;10317;47.254;11.314;2023-12-29T05:07:09;0.80;99.90
20319;DHT22;10317;47.254;11.314;2023-12-29T05:09:35;0.70;99.90
20319;DHT22;10317;47.254;11.314;2023-12-29T05:12:00;0.70;99.90
20319;DHT22;10317;47.254;11.314;2023-12-29T05:14:26;0.70;99.90
20319;DHT22;10317;47.254;11.314;2023-12-29T05:16:52;0.70;99.90
20319;DHT22;10317;47.254;11.314;2023-12-29T05:19:17;0.70;99.90
20319;DHT22;10317;47.254;11.314;2023-12-29T05:21:43;0.70;99.90
20319;DHT22;10317;47.254;11.314;2023-12-29T05:24:09;0.70;99.90
20319;DHT22;10317;47.254;11.314;2023-12-29T05:26:34;0.70;99.90
20319;DHT22;10317;47.254;11.314;2023-12-29T05:29:00;0.60;99.90
20319;DHT22;10317;47.254;11.314;2023-12-29T05:31:26;0.60;99.90
20319;DHT22;10317;47.254;11.314;2023-12-29T05:33:51;0.60;99.90
20319;DHT22;10317;47.254;11.314;2023-12-29T05:36:17;0.60;99.90
20319;DHT22;10317;47.254;11.314;2023-12-29T05:38:45;0.50;99.90
20319;DHT22;10317;47.254;11.314;2023-12-29T05:41:15;0.50;99.90
20319;DHT22;10317;47.254;11.314;2023-12-29T05:43:41;0.50;99.90
20319;DHT22;10317;47.254;11.314;2023-12-29T05:46:10;0.50;99.90
20319;DHT22;10317;47.254;11.314;2023-12-29T05:48:39;0.50;99.90
20319;DHT22;10317;47.254;11.314;2023-12-29T05:51:07;0.40;99.90
20319;DHT22;10317;47.254;11.314;2023-12-29T05:53:34;0.40;99.90
20319;DHT22;10317;47.254;11.314;2023-12-29T05:56:00;0.40;99.90
20319;DHT22;10317;47.254;11.314;2023-12-29T05:58:25;0.40;99.90
20319;DHT22;10317;47.254;11.314;2023-12-29T06:00:51;0.50;99.90
20319;DHT22;10317;47.254;11.314;2023-12-29T06:03:17;0.50;99.90
20319;DHT22;10317;47.254;11.314;2023-12-29T06:05:43;0.50;99.90
20319;DHT22;10317;47.254;11.314;2023-12-29T06:08:08;0.50;99.90
20319;DHT22;10317;47.254;11.314;2023-12-29T06:10:35;0.60;99.90
20319;DHT22;10317;47.254;11.314;2023-12-29T06:13:02;0.60;99.90
20319;DHT22;10317;47.254;11.314;2023-12-29T06:15:28;0.60;99.90
20319;DHT22;10317;47.254;11.314;2023-12-29T06:17:54;0.70;99.90
20319;DHT22;10317;47.254;11.314;2023-12-29T06:20:20;0.70;99.90
20319;DHT22;10317;47.254;11.314;2023-12-29T06:22:46;0.70;99.90
20319;DHT22;10317;47.254;11.314;2023-12-29T06:25:12;0.80;99.90
20319;DHT22;10317;47.254;11.314;2023-12-29T06:27:39;0.80;99.90
20319;DHT22;10317;47.254;11.314;2023-12-29T06:30:06;0.80;99.90
20319;DHT22;10317;47.254;11.314;2023-12-29T06:32:32;0.90;99.90
20319;DHT22;10317;47.254;11.314;2023-12-29T06:34:58;0.90;99.90
20319;DHT22;10317;47.254;11.314;2023-12-29T06:37:24;1.00;99.90
20319;DHT22;10317;47.254;11.314;2023-12-29T06:39:50;1.00;99.90
20319;DHT22;10317;47.254;11.314;2023-12-29T06:42:15;1.00;99.90
20319;DHT22;10317;47.254;11.314;2023-12-29T06:44:41;1.00;99.90
20319;DHT22;10317;47.254;11.314;2023-12-29T06:47:07;1.00;99.90
20319;DHT22;10317;47.254;11.314;2023-12-29T06:49:34;1.00;99.90
20319;DHT22;10317;47.254;11.314;2023-12-29T06:52:00;1.00;99.90
20319;DHT22;10317;47.254;11.314;2023-12-29T06:54:26;1.00;99.90
20319;DHT22;10317;47.254;11.314;2023-12-29T06:56:52;1.00;99.90
20319;DHT22;10317;47.254;11.314;2023-12-29T06:59:18;1.10;99.90
20319;DHT22;10317;47.254;11.314;2023-12-29T07:01:45;1.10;99.90
20319;DHT22;10317;47.254;11.314;2023-12-29T07:04:11;1.10;99.90
20319;DHT22;10317;47.254;11.314;2023-12-29T07:06:37;1.20;99.90
20319;DHT22;10317;47.254;11.314;2023-12-29T07:09:03;1.20;99.90
20319;DHT22;10317;47.254;11.314;2023-12-29T07:11:29;1.20;99.90
20319;DHT22;10317;47.254;11.314;2023-12-29T07:13:55;1.20;99.90
20319;DHT22;10317;47.254;11.314;2023-12-29T07:16:21;1.30;99.90
20319;DHT22;10317;47.254;11.314;2023-12-29T07:18:47;1.30;99.90
20319;DHT22;10317;47.254;11.314;2023-12-29T07:21:14;1.30;99.90
20319;DHT22;10317;47.254;11.314;2023-12-29T07:23:40;1.40;99.90
20319;DHT22;10317;47.254;11.314;2023-12-29T07:26:07;1.40;99.90
20319;DHT22;10317;47.254;11.314;2023-12-29T07:28:32;1.40;99.90
20319;DHT22;10317;47.254;11.314;2023-12-29T07:30:59;1.50;99.90
20319;DHT22;10317;47.254;11.314;2023-12-29T07:33:25;1.60;99.90
20319;DHT22;10317;47.254;11.314;2023-12-29T07:35:51;1.70;99.90
20319;DHT22;10317;47.254;11.314;2023-12-29T07:38:16;1.80;99.90
20319;DHT22;10317;47.254;11.314;2023-12-29T07:40:42;1.90;99.90
20319;DHT22;10317;47.254;11.314;2023-12-29T07:43:08;2.00;99.90
20319;DHT22;10317;47.254;11.314;2023-12-29T07:45:34;2.20;99.90
20319;DHT22;10317;47.254;11.314;2023-12-29T07:48:03;2.20;99.90
20319;DHT22;10317;47.254;11.314;2023-12-29T07:50:29;2.30;99.90
20319;DHT22;10317;47.254;11.314;2023-12-29T07:52:55;2.40;99.90
20319;DHT22;10317;47.254;11.314;2023-12-29T07:55:20;2.50;99.90
20319;DHT22;10317;47.254;11.314;2023-12-29T07:57:46;2.60;99.90
20319;DHT22;10317;47.254;11.314;2023-12-29T08:00:14;2.80;99.90
20319;DHT22;10317;47.254;11.314;2023-12-29T08:02:40;2.90;99.90
20319;DHT22;10317;47.254;11.314;2023-12-29T08:05:06;3.00;99.90
20319;DHT22;10317;47.254;11.314;2023-12-29T08:07:34;3.00;99.90
20319;DHT22;10317;47.254;11.314;2023-12-29T08:10:00;3.00;99.90
20319;DHT22;10317;47.254;11.314;2023-12-29T08:12:26;3.10;99.90
20319;DHT22;10317;47.254;11.314;2023-12-29T08:14:53;3.10;99.90
20319;DHT22;10317;47.254;11.314;2023-12-29T08:17:19;3.30;99.90
20319;DHT22;10317;47.254;11.314;2023-12-29T08:19:45;3.40;99.90
20319;DHT22;10317;47.254;11.314;2023-12-29T08:22:10;3.50;99.90
20319;DHT22;10317;47.254;11.314;2023-12-29T08:24:36;3.50;99.90
20319;DHT22;10317;47.254;11.314;2023-12-29T08:27:02;3.50;99.90
20319;DHT22;10317;47.254;11.314;2023-12-29T08:29:28;3.60;99.90
20319;DHT22;10317;47.254;11.314;2023-12-29T08:31:54;3.60;99.90
20319;DHT22;10317;47.254;11.314;2023-12-29T08:34:20;3.60;99.90
20319;DHT22;10317;47.254;11.314;2023-12-29T08:36:45;3.60;99.90
20319;DHT22;10317;47.254;11.314;2023-12-29T08:39:11;3.60;99.90
20319;DHT22;10317;47.254;11.314;2023-12-29T08:41:37;3.70;99.90
20319;DHT22;10317;47.254;11.314;2023-12-29T08:44:03;3.90;99.90
20319;DHT22;10317;47.254;11.314;2023-12-29T08:46:29;4.10;99.90
20319;DHT22;10317;47.254;11.314;2023-12-29T08:48:55;4.20;99.90
20319;DHT22;10317;47.254;11.314;2023-12-29T08:51:20;4.40;99.90
20319;DHT22;10317;47.254;11.314;2023-12-29T08:53:46;4.60;99.90
20319;DHT22;10317;47.254;11.314;2023-12-29T08:56:12;4.80;99.90
20319;DHT22;10317;47.254;11.314;2023-12-29T08:58:39;4.90;99.90
20319;DHT22;10317;47.254;11.314;2023-12-29T09:01:05;5.00;99.90
20319;DHT22;10317;47.254;11.314;2023-12-29T09:03:31;5.00;99.90
20319;DHT22;10317;47.254;11.314;2023-12-29T09:05:56;5.10;99.90
20319;DHT22;10317;47.254;11.314;2023-12-29T09:08:24;5.30;99.90
20319;DHT22;10317;47.254;11.314;2023-12-29T09:10:50;5.40;99.90
20319;DHT22;10317;47.254;11.314;2023-12-29T09:13:15;5.60;99.90
20319;DHT22;10317;47.254;11.314;2023-12-29T09:15:41;5.70;99.90
20319;DHT22;10317;47.254;11.314;2023-12-29T09:18:07;5.70;99.90
20319;DHT22;10317;47.254;11.314;2023-12-29T09:20:33;5.80;99.90
20319;DHT22;10317;47.254;11.314;2023-12-29T09:22:58;6.00;99.90
20319;DHT22;10317;47.254;11.314;2023-12-29T09:25:25;6.10;99.90
20319;DHT22;10317;47.254;11.314;2023-12-29T09:27:51;6.10;99.90
20319;DHT22;10317;47.254;11.314;2023-12-29T09:30:18;6.20;99.90
20319;DHT22;10317;47.254;11.314;2023-12-29T09:32:44;6.30;99.90
20319;DHT22;10317;47.254;11.314;2023-12-29T09:35:09;6.50;99.90
20319;DHT22;10317;47.254;11.314;2023-12-29T09:37:35;6.60;99.90
20319;DHT22;10317;47.254;11.314;2023-12-29T09:40:01;6.80;99.90
20319;DHT22;10317;47.254;11.314;2023-12-29T09:42:29;6.90;99.90
20319;DHT22;10317;47.254;11.314;2023-12-29T09:44:55;7.00;99.90
20319;DHT22;10317;47.254;11.314;2023-12-29T09:47:23;7.10;99.90
20319;DHT22;10317;47.254;11.314;2023-12-29T09:49:49;7.20;99.90
20319;DHT22;10317;47.254;11.314;2023-12-29T09:52:17;7.30;99.90
20319;DHT22;10317;47.254;11.314;2023-12-29T09:54:44;7.30;99.90
20319;DHT22;10317;47.254;11.314;2023-12-29T09:57:10;7.20;99.90
20319;DHT22;10317;47.254;11.314;2023-12-29T09:59:36;7.30;99.90
20319;DHT22;10317;47.254;11.314;2023-12-29T10:02:15;7.40;99.90
20319;DHT22;10317;47.254;11.314;2023-12-29T10:04:44;7.50;99.90
20319;DHT22;10317;47.254;11.314;2023-12-29T10:07:15;7.60;99.90
20319;DHT22;10317;47.254;11.314;2023-12-29T10:09:46;7.80;99.90
20319;DHT22;10317;47.254;11.314;2023-12-29T10:12:13;7.80;99.90
20319;DHT22;10317;47.254;11.314;2023-12-29T10:18:14;7.80;99.90
20319;DHT22;10317;47.254;11.314;2023-12-29T10:23:12;7.80;99.90
20319;DHT22;10317;47.254;11.314;2023-12-29T10:25:42;7.90;99.90
20319;DHT22;10317;47.254;11.314;2023-12-29T10:28:09;8.00;99.80
20319;DHT22;10317;47.254;11.314;2023-12-29T10:30:36;8.00;99.30
20319;DHT22;10317;47.254;11.314;2023-12-29T10:33:04;8.10;99.60
20319;DHT22;10317;47.254;11.314;2023-12-29T10:35:30;8.20;99.00
20319;DHT22;10317;47.254;11.314;2023-12-29T10:38:15;8.30;98.90
20319;DHT22;10317;47.254;11.314;2023-12-29T10:40:40;8.40;98.30
20319;DHT22;10317;47.254;11.314;2023-12-29T10:43:08;8.30;98.30
20319;DHT22;10317;47.254;11.314;2023-12-29T10:45:34;8.30;98.90
20319;DHT22;10317;47.254;11.314;2023-12-29T10:48:02;8.30;98.80
20319;DHT22;10317;47.254;11.314;2023-12-29T10:50:28;8.60;99.50
20319;DHT22;10317;47.254;11.314;2023-12-29T10:53:13;8.80;98.20
20319;DHT22;10317;47.254;11.314;2023-12-29T10:55:39;9.00;98.50
20319;DHT22;10317;47.254;11.314;2023-12-29T10:58:05;9.10;97.90
20319;DHT22;10317;47.254;11.314;2023-12-29T11:00:32;9.30;96.90
20319;DHT22;10317;47.254;11.314;2023-12-29T11:03:00;9.40;96.80
20319;DHT22;10317;47.254;11.314;2023-12-29T11:05:26;9.60;97.00
20319;DHT22;10317;47.254;11.314;2023-12-29T11:07:54;9.70;96.80
20319;DHT22;10317;47.254;11.314;2023-12-29T11:10:21;9.60;97.30
20319;DHT22;10317;47.254;11.314;2023-12-29T11:12:48;9.60;97.40
20319;DHT22;10317;47.254;11.314;2023-12-29T11:15:15;9.70;95.60
20319;DHT22;10317;47.254;11.314;2023-12-29T11:17:42;9.90;95.90
20319;DHT22;10317;47.254;11.314;2023-12-29T11:20:15;10.10;96.40
20319;DHT22;10317;47.254;11.314;2023-12-29T11:22:42;10.30;95.70
20319;DHT22;10317;47.254;11.314;2023-12-29T11:25:09;10.60;95.90
20319;DHT22;10317;47.254;11.314;2023-12-29T11:27:35;10.80;95.50
20319;DHT22;10317;47.254;11.314;2023-12-29T11:30:02;11.10;95.00
20319;DHT22;10317;47.254;11.314;2023-12-29T11:32:55;11.20;94.80
20319;DHT22;10317;47.254;11.314;2023-12-29T11:35:46;11.50;94.10
20319;DHT22;10317;47.254;11.314;2023-12-29T11:43:34;12.70;91.20
20319;DHT22;10317;47.254;11.314;2023-12-29T11:46:00;12.60;92.30
20319;DHT22;10317;47.254;11.314;2023-12-29T11:48:55;12.60;92.00
20319;DHT22;10317;47.254;11.314;2023-12-29T11:51:41;12.70;92.20
20319;DHT22;10317;47.254;11.314;2023-12-29T11:54:09;12.90;91.80
20319;DHT22;10317;47.254;11.314;2023-12-29T11:56:39;12.90;91.70
20319;DHT22;10317;47.254;11.314;2023-12-29T11:59:20;12.90;89.40
20319;DHT22;10317;47.254;11.314;2023-12-29T12:01:49;12.80;89.60
20319;DHT22;10317;47.254;11.314;2023-12-29T12:04:37;12.80;91.50
20319;DHT22;10317;47.254;11.314;2023-12-29T12:07:07;12.80;91.40
20319;DHT22;10317;47.254;11.314;2023-12-29T12:09:34;12.70;90.80
20319;DHT22;10317;47.254;11.314;2023-12-29T12:12:01;12.40;90.80
20319;DHT22;10317;47.254;11.314;2023-12-29T12:14:44;12.20;91.40
20319;DHT22;10317;47.254;11.314;2023-12-29T12:17:11;11.90;88.50
20319;DHT22;10317;47.254;11.314;2023-12-29T12:19:37;11.40;90.30
20319;DHT22;10317;47.254;11.314;2023-12-29T12:22:03;11.10;91.20
20319;DHT22;10317;47.254;11.314;2023-12-29T12:24:29;10.80;91.50
20319;DHT22;10317;47.254;11.314;2023-12-29T12:26:55;10.40;92.00
20319;DHT22;10317;47.254;11.314;2023-12-29T12:29:21;10.20;92.10
20319;DHT22;10317;47.254;11.314;2023-12-29T12:31:56;10.00;92.70
20319;DHT22;10317;47.254;11.314;2023-12-29T12:34:22;9.90;92.70
20319;DHT22;10317;47.254;11.314;2023-12-29T12:36:52;9.70;92.50
20319;DHT22;10317;47.254;11.314;2023-12-29T12:39:18;9.60;92.90
20319;DHT22;10317;47.254;11.314;2023-12-29T12:41:44;9.50;93.70
20319;DHT22;10317;47.254;11.314;2023-12-29T12:44:14;9.40;94.00
20319;DHT22;10317;47.254;11.314;2023-12-29T12:46:49;9.30;94.00
20319;DHT22;10317;47.254;11.314;2023-12-29T12:49:17;9.20;93.80
20319;DHT22;10317;47.254;11.314;2023-12-29T12:51:43;9.10;93.60
20319;DHT22;10317;47.254;11.314;2023-12-29T12:54:10;9.10;93.90
20319;DHT22;10317;47.254;11.314;2023-12-29T12:56:37;9.10;94.50
20319;DHT22;10317;47.254;11.314;2023-12-29T12:59:03;9.00;94.70
20319;DHT22;10317;47.254;11.314;2023-12-29T13:01:30;9.00;94.60
20319;DHT22;10317;47.254;11.314;2023-12-29T13:03:59;9.00;94.60
20319;DHT22;10317;47.254;11.314;2023-12-29T13:06:25;8.90;95.00
20319;DHT22;10317;47.254;11.314;2023-12-29T13:08:51;8.90;95.30
20319;DHT22;10317;47.254;11.314;2023-12-29T13:11:21;8.70;95.50
20319;DHT22;10317;47.254;11.314;2023-12-29T13:13:47;8.60;95.50
20319;DHT22;10317;47.254;11.314;2023-12-29T13:16:13;8.50;95.50
20319;DHT22;10317;47.254;11.314;2023-12-29T13:18:39;8.50;95.90
20319;DHT22;10317;47.254;11.314;2023-12-29T13:21:06;8.50;96.10
20319;DHT22;10317;47.254;11.314;2023-12-29T13:23:32;8.40;96.50
20319;DHT22;10317;47.254;11.314;2023-12-29T13:26:02;8.40;96.30
20319;DHT22;10317;47.254;11.314;2023-12-29T13:28:28;8.40;96.00
20319;DHT22;10317;47.254;11.314;2023-12-29T13:30:55;8.30;96.30
20319;DHT22;10317;47.254;11.314;2023-12-29T13:35:56;8.10;96.70
20319;DHT22;10317;47.254;11.314;2023-12-29T13:38:28;8.00;96.70
20319;DHT22;10317;47.254;11.314;2023-12-29T13:41:04;8.00;97.10
20319;DHT22;10317;47.254;11.314;2023-12-29T13:43:32;7.90;97.10
20319;DHT22;10317;47.254;11.314;2023-12-29T13:46:00;7.80;97.10
20319;DHT22;10317;47.254;11.314;2023-12-29T13:48:26;7.70;97.30
20319;DHT22;10317;47.254;11.314;2023-12-29T13:50:53;7.60;97.50
20319;DHT22;10317;47.254;11.314;2023-12-29T13:53:20;7.60;97.50
20319;DHT22;10317;47.254;11.314;2023-12-29T13:55:46;7.50;97.90
20319;DHT22;10317;47.254;11.314;2023-12-29T13:58:12;7.40;98.10
20319;DHT22;10317;47.254;11.314;2023-12-29T14:00:40;7.30;98.30
20319;DHT22;10317;47.254;11.314;2023-12-29T14:03:10;7.20;98.50
20319;DHT22;10317;47.254;11.314;2023-12-29T14:05:56;7.10;98.70
20319;DHT22;10317;47.254;11.314;2023-12-29T14:08:49;6.90;98.70
20319;DHT22;10317;47.254;11.314;2023-12-29T14:11:14;6.90;99.10
20319;DHT22;10317;47.254;11.314;2023-12-29T14:13:44;6.70;99.10
20319;DHT22;10317;47.254;11.314;2023-12-29T14:16:11;6.70;99.20
20319;DHT22;10317;47.254;11.314;2023-12-29T14:21:29;6.50;99.50
20319;DHT22;10317;47.254;11.314;2023-12-29T14:24:10;6.40;99.90
20319;DHT22;10317;47.254;11.314;2023-12-29T14:26:41;6.30;99.90
20319;DHT22;10317;47.254;11.314;2023-12-29T14:29:11;6.20;99.90
20319;DHT22;10317;47.254;11.314;2023-12-29T14:31:41;6.10;99.90
20319;DHT22;10317;47.254;11.314;2023-12-29T14:34:08;6.00;99.90
20319;DHT22;10317;47.254;11.314;2023-12-29T14:36:35;5.90;99.90
20319;DHT22;10317;47.254;11.314;2023-12-29T14:39:01;5.90;99.90
20319;DHT22;10317;47.254;11.314;2023-12-29T14:41:28;5.80;99.90
20319;DHT22;10317;47.254;11.314;2023-12-29T14:43:55;5.60;99.90
20319;DHT22;10317;47.254;11.314;2023-12-29T14:46:20;5.60;99.90
20319;DHT22;10317;47.254;11.314;2023-12-29T14:48:46;5.50;99.90
20319;DHT22;10317;47.254;11.314;2023-12-29T14:51:12;5.40;99.90
20319;DHT22;10317;47.254;11.314;2023-12-29T14:53:38;5.40;99.90
20319;DHT22;10317;47.254;11.314;2023-12-29T14:56:04;5.30;99.90
20319;DHT22;10317;47.254;11.314;2023-12-29T14:58:30;5.20;99.90
20319;DHT22;10317;47.254;11.314;2023-12-29T15:01:02;5.10;99.90
20319;DHT22;10317;47.254;11.314;2023-12-29T15:03:28;5.10;99.90
20319;DHT22;10317;47.254;11.314;2023-12-29T15:05:53;5.00;99.90
20319;DHT22;10317;47.254;11.314;2023-12-29T15:08:19;4.90;99.90
20319;DHT22;10317;47.254;11.314;2023-12-29T15:10:45;4.80;99.90
20319;DHT22;10317;47.254;11.314;2023-12-29T15:13:11;4.70;99.90
20319;DHT22;10317;47.254;11.314;2023-12-29T15:15:37;4.60;99.90
20319;DHT22;10317;47.254;11.314;2023-12-29T15:18:03;4.50;99.90
20319;DHT22;10317;47.254;11.314;2023-12-29T15:20:28;4.40;99.90
20319;DHT22;10317;47.254;11.314;2023-12-29T15:22:54;4.30;99.90
20319;DHT22;10317;47.254;11.314;2023-12-29T15:25:21;4.20;99.90
20319;DHT22;10317;47.254;11.314;2023-12-29T15:27:48;4.10;99.90
20319;DHT22;10317;47.254;11.314;2023-12-29T15:30:14;4.00;99.90
20319;DHT22;10317;47.254;11.314;2023-12-29T15:32:40;4.00;99.90
20319;DHT22;10317;47.254;11.314;2023-12-29T15:35:06;3.90;99.90
20319;DHT22;10317;47.254;11.314;2023-12-29T15:37:32;3.80;99.90
20319;DHT22;10317;47.254;11.314;2023-12-29T15:39:58;3.80;99.90
20319;DHT22;10317;47.254;11.314;2023-12-29T15:42:25;3.70;99.90
20319;DHT22;10317;47.254;11.314;2023-12-29T15:44:51;3.60;99.90
20319;DHT22;10317;47.254;11.314;2023-12-29T15:47:17;3.50;99.90
20319;DHT22;10317;47.254;11.314;2023-12-29T15:49:43;3.40;99.90